createdAt,value
2018-07-21T00:01:47.177Z,6.50
2018-07-21T00:04:15.790Z,5.67
2018-07-21T00:06:44.729Z,5.45
2018-07-21T00:09:13.682Z,5.42
2018-07-21T00:11:44.605Z,5.10
2018-07-21T00:14:13.266Z,4.90
2018-07-21T00:16:42.005Z,5.20
2018-07-21T00:19:10.330Z,5.03
2018-07-21T00:21:45.333Z,4.93
2018-07-21T00:24:13.684Z,4.93
2018-07-21T00:26:48.169Z,5.03
2018-07-21T00:29:17.710Z,4.80
2018-07-21T00:31:46.357Z,4.60
2018-07-21T00:34:14.964Z,5.20
2018-07-21T00:36:43.947Z,4.97
2018-07-21T00:39:15.058Z,5.15
2018-07-21T00:41:44.261Z,4.60
2018-07-21T00:44:12.981Z,5.13
2018-07-21T00:46:41.901Z,5.35
2018-07-21T00:49:10.834Z,5.17
2018-07-21T00:51:42.392Z,5.87
2018-07-21T00:54:11.289Z,5.67
2018-07-21T00:56:39.909Z,5.67
2018-07-21T00:59:12.619Z,5.70
2018-07-21T01:01:42.606Z,5.80
2018-07-21T01:04:10.945Z,5.77
2018-07-21T01:06:50.661Z,5.60
2018-07-21T01:09:19.720Z,5.17
2018-07-21T01:11:48.281Z,4.67
2018-07-21T01:14:18.083Z,4.53
2018-07-21T01:16:47.023Z,5.05
2018-07-21T01:19:15.571Z,5.23
2018-07-21T01:21:43.964Z,5.07
2018-07-21T01:24:12.322Z,3.93
2018-07-21T01:26:40.895Z,4.00
2018-07-21T01:29:09.292Z,3.73
2018-07-21T01:31:37.702Z,3.70
2018-07-21T01:34:06.038Z,3.90
2018-07-21T01:36:34.382Z,3.67
2018-07-21T01:39:02.961Z,4.10
2018-07-21T01:41:31.307Z,4.17
2018-07-21T01:43:59.829Z,4.03
2018-07-21T01:46:28.157Z,3.83
2018-07-21T01:48:56.665Z,4.03
2018-07-21T01:51:30.474Z,3.40
2018-07-21T01:53:59.357Z,3.60
2018-07-21T01:56:27.827Z,3.63
2018-07-21T01:59:00.100Z,4.00
2018-07-21T02:01:28.688Z,3.53
2018-07-21T02:03:56.836Z,3.73
2018-07-21T02:06:25.169Z,3.70
2018-07-21T02:08:53.513Z,3.73
2018-07-21T02:11:21.919Z,4.27
2018-07-21T02:13:50.255Z,3.90
2018-07-21T02:16:18.711Z,3.30
2018-07-21T02:18:47.012Z,3.33
2018-07-21T02:21:15.374Z,3.30
2018-07-21T02:23:43.765Z,3.40
2018-07-21T02:26:12.230Z,4.03
2018-07-21T02:28:40.730Z,3.80
2018-07-21T02:31:09.171Z,3.77
2018-07-21T02:33:38.639Z,3.60
2018-07-21T02:36:07.014Z,3.70
2018-07-21T02:38:46.868Z,4.20
2018-07-21T02:41:15.236Z,3.67
2018-07-21T02:43:43.844Z,4.00
2018-07-21T02:46:11.904Z,4.10
2018-07-21T02:48:40.250Z,4.43
2018-07-21T02:51:08.592Z,4.23
2018-07-21T02:53:40.077Z,4.27
2018-07-21T02:56:08.446Z,3.63
2018-07-21T02:58:37.083Z,4.03
2018-07-21T03:01:05.413Z,3.53
2018-07-21T03:03:33.790Z,3.83
2018-07-21T03:06:02.129Z,3.60
2018-07-21T03:08:30.555Z,3.33
2018-07-21T03:10:59.165Z,3.37
2018-07-21T03:13:27.857Z,3.27
2018-07-21T03:15:56.222Z,3.47
2018-07-21T03:18:24.751Z,4.07
2018-07-21T03:20:53.166Z,3.53
2018-07-21T03:23:21.559Z,2.93
2018-07-21T03:25:50.067Z,3.50
2018-07-21T03:28:19.022Z,3.47
2018-07-21T03:30:47.444Z,3.83
2018-07-21T03:33:26.392Z,3.83
2018-07-21T03:35:54.707Z,4.00
2018-07-21T03:38:23.049Z,3.87
2018-07-21T03:40:51.428Z,3.53
2018-07-21T03:43:19.856Z,4.20
2018-07-21T03:45:50.530Z,4.70
2018-07-21T03:48:19.853Z,4.35
2018-07-21T03:50:48.188Z,4.22
2018-07-21T03:53:16.860Z,4.47
2018-07-21T03:55:45.476Z,3.47
2018-07-21T03:58:13.874Z,3.97
2018-07-21T04:00:43.470Z,3.90
2018-07-21T04:03:11.835Z,4.60
2018-07-21T04:05:40.209Z,4.23
2018-07-21T04:08:08.895Z,4.10
2018-07-21T04:10:37.255Z,4.13
2018-07-21T04:13:05.965Z,4.70
2018-07-21T04:15:34.034Z,4.10
2018-07-21T04:18:09.566Z,5.10
2018-07-21T04:20:37.942Z,4.80
2018-07-21T04:23:06.321Z,4.17
2018-07-21T04:25:34.520Z,4.60
2018-07-21T04:28:02.897Z,4.57
2018-07-21T04:30:38.100Z,5.07
2018-07-21T04:33:06.450Z,4.43
2018-07-21T04:35:34.922Z,4.90
2018-07-21T04:38:03.252Z,4.63
2018-07-21T04:40:31.781Z,4.87
2018-07-21T04:43:00.129Z,4.93
2018-07-21T04:45:28.493Z,5.00
2018-07-21T04:47:56.893Z,5.33
2018-07-21T04:50:25.225Z,5.00
2018-07-21T04:52:53.801Z,5.60
2018-07-21T04:55:22.142Z,5.27
2018-07-21T04:57:50.524Z,5.60
2018-07-21T05:00:19.915Z,5.35
2018-07-21T05:02:48.283Z,5.57
2018-07-21T05:05:16.887Z,5.50
2018-07-21T05:07:45.240Z,5.90
2018-07-21T05:10:13.829Z,5.93
2018-07-21T05:12:42.185Z,5.93
2018-07-21T05:15:10.541Z,5.97
2018-07-21T05:17:38.921Z,5.87
2018-07-21T05:20:07.342Z,6.33
2018-07-21T05:22:35.910Z,6.77
2018-07-21T05:25:05.251Z,7.57
2018-07-21T05:27:33.748Z,7.20
2018-07-21T05:30:02.082Z,6.40
2018-07-21T05:32:30.424Z,6.27
2018-07-21T05:34:58.779Z,7.47
2018-07-21T05:37:27.230Z,8.97
2018-07-21T05:39:55.773Z,8.13
2018-07-21T05:42:24.813Z,7.83
2018-07-21T05:44:56.335Z,7.70
2018-07-21T05:47:24.728Z,8.40
2018-07-21T05:49:53.057Z,9.30
2018-07-21T05:52:24.508Z,8.60
2018-07-21T05:54:52.829Z,8.60
2018-07-21T05:57:21.211Z,9.00
2018-07-21T05:59:49.616Z,8.37
2018-07-21T06:02:17.731Z,8.07
2018-07-21T06:04:46.129Z,8.33
2018-07-21T06:07:14.530Z,7.70
2018-07-21T06:09:43.718Z,7.23
2018-07-21T06:12:12.073Z,7.77
2018-07-21T06:14:40.447Z,5.97
2018-07-21T06:17:09.059Z,6.30
2018-07-21T06:19:37.540Z,5.57
2018-07-21T06:22:05.930Z,6.47
2018-07-21T06:24:34.330Z,11.77
2018-07-21T06:27:03.592Z,6.67
2018-07-21T06:29:31.994Z,6.90
2018-07-21T06:32:00.333Z,6.10
2018-07-21T06:34:29.105Z,5.93
2018-07-21T06:36:57.473Z,5.77
2018-07-21T06:39:26.187Z,5.60
2018-07-21T06:41:54.550Z,6.07
2018-07-21T06:44:22.951Z,6.10
2018-07-21T06:46:51.352Z,5.83
2018-07-21T06:49:19.906Z,6.87
2018-07-21T06:51:48.252Z,6.33
2018-07-21T06:54:16.610Z,6.90
2018-07-21T06:56:45.028Z,6.13
2018-07-21T06:59:13.397Z,7.07
2018-07-21T07:01:41.917Z,6.37
2018-07-21T07:04:10.257Z,6.70
2018-07-21T07:06:38.789Z,6.23
2018-07-21T07:09:08.683Z,6.40
2018-07-21T07:11:39.267Z,5.73
2018-07-21T07:14:08.100Z,5.47
2018-07-21T07:16:36.788Z,5.73
2018-07-21T07:19:05.345Z,5.63
2018-07-21T07:21:33.941Z,4.57
2018-07-21T07:24:02.393Z,4.13
2018-07-21T07:26:30.978Z,4.37
2018-07-21T07:28:59.384Z,4.07
2018-07-21T07:31:28.400Z,4.00
2018-07-21T07:33:56.956Z,4.30
2018-07-21T07:36:25.474Z,4.60
2018-07-21T07:38:54.340Z,4.87
2018-07-21T07:41:22.748Z,4.50
2018-07-21T07:43:51.166Z,4.30
2018-07-21T07:46:19.638Z,4.10
2018-07-21T07:48:47.709Z,4.13
2018-07-21T07:51:16.117Z,3.60
2018-07-21T07:53:44.695Z,3.63
2018-07-21T07:56:16.017Z,3.60
2018-07-21T07:58:44.391Z,2.97
2018-07-21T08:01:13.117Z,3.47
2018-07-21T08:03:41.875Z,3.80
2018-07-21T08:06:10.237Z,4.20
2018-07-21T08:08:38.930Z,3.20
2018-07-21T08:11:07.465Z,3.30
2018-07-21T08:13:36.219Z,3.47
2018-07-21T08:16:05.238Z,3.03
2018-07-21T08:18:34.175Z,2.87
2018-07-21T08:21:07.687Z,3.20
2018-07-21T08:23:36.045Z,3.70
2018-07-21T08:26:04.480Z,3.83
2018-07-21T08:28:33.980Z,3.20
2018-07-21T08:31:11.435Z,3.30
2018-07-21T08:33:39.881Z,3.07
2018-07-21T08:36:08.905Z,5.80
2018-07-21T08:38:37.321Z,3.10
2018-07-21T08:41:07.322Z,2.70
2018-07-21T08:43:35.750Z,2.23
2018-07-21T08:46:04.107Z,2.50
2018-07-21T08:48:32.945Z,2.23
2018-07-21T08:51:01.399Z,3.00
2018-07-21T08:53:30.110Z,2.67
2018-07-21T08:55:58.529Z,2.57
2018-07-21T08:58:27.089Z,2.40
2018-07-21T09:01:07.305Z,3.23
2018-07-21T09:03:36.311Z,2.90
2018-07-21T09:06:05.010Z,3.00
2018-07-21T09:08:33.925Z,2.80
2018-07-21T09:11:02.325Z,4.37
2018-07-21T09:13:31.706Z,2.47
2018-07-21T09:16:00.187Z,3.20
2018-07-21T09:18:28.726Z,2.80
2018-07-21T09:20:57.276Z,3.03
2018-07-21T09:23:25.654Z,2.77
2018-07-21T09:25:54.200Z,3.50
2018-07-21T09:28:22.598Z,3.47
2018-07-21T09:30:51.072Z,3.17
2018-07-21T09:33:20.192Z,2.90
2018-07-21T09:35:48.617Z,3.27
2018-07-21T09:38:17.901Z,4.17
2018-07-21T09:40:47.042Z,2.97
2018-07-21T09:43:15.961Z,3.47
2018-07-21T09:45:44.969Z,3.30
2018-07-21T09:48:13.503Z,2.60
2018-07-21T09:50:42.953Z,2.53
2018-07-21T09:53:11.505Z,3.10
2018-07-21T09:55:40.332Z,3.17
2018-07-21T09:58:08.937Z,2.47
2018-07-21T10:00:42.532Z,3.30
2018-07-21T10:03:11.105Z,3.37
2018-07-21T10:05:40.567Z,3.57
2018-07-21T10:08:09.011Z,4.60
2018-07-21T10:10:51.987Z,4.43
2018-07-21T10:13:20.447Z,3.47
2018-07-21T10:15:49.243Z,3.50
2018-07-21T10:18:18.492Z,3.67
2018-07-21T10:20:46.889Z,4.03
2018-07-21T10:23:15.247Z,4.07
2018-07-21T10:25:49.007Z,4.10
2018-07-21T10:28:22.901Z,3.60
2018-07-21T10:30:51.620Z,3.90
2018-07-21T10:33:20.080Z,4.07
2018-07-21T10:35:48.688Z,3.53
2018-07-21T10:38:17.210Z,3.80
2018-07-21T10:40:45.633Z,3.97
2018-07-21T10:43:14.171Z,3.87
2018-07-21T10:45:42.577Z,4.17
2018-07-21T10:48:10.957Z,3.97
2018-07-21T10:50:39.404Z,3.63
2018-07-21T10:53:08.068Z,3.37
2018-07-21T10:55:36.391Z,4.20
2018-07-21T10:58:05.209Z,5.00
2018-07-21T11:00:33.692Z,4.03
2018-07-21T11:03:02.137Z,3.50
2018-07-21T11:05:30.548Z,3.97
2018-07-21T11:07:59.067Z,4.00
2018-07-21T11:10:27.625Z,3.90
2018-07-21T11:12:56.014Z,3.97
2018-07-21T11:15:24.585Z,3.80
2018-07-21T11:17:53.031Z,4.40
2018-07-21T11:20:36.161Z,4.07
2018-07-21T11:23:04.589Z,4.30
2018-07-21T11:25:33.320Z,4.70
2018-07-21T11:28:02.015Z,4.43
2018-07-21T11:30:30.420Z,4.10
2018-07-21T11:32:58.781Z,4.77
2018-07-21T11:35:27.316Z,4.13
2018-07-21T11:37:55.870Z,4.23
2018-07-21T11:40:24.281Z,4.30
2018-07-21T11:42:52.790Z,3.50
2018-07-21T11:45:21.157Z,4.37
2018-07-21T11:47:49.763Z,4.23
2018-07-21T11:50:18.201Z,4.40
2018-07-21T11:52:46.813Z,4.30
2018-07-21T11:55:15.198Z,3.43
2018-07-21T11:57:45.761Z,4.07
2018-07-21T12:00:14.411Z,4.00
2018-07-21T12:02:42.875Z,3.83
2018-07-21T12:05:11.275Z,3.90
2018-07-21T12:07:39.804Z,3.90
2018-07-21T12:10:08.210Z,4.40
2018-07-21T12:12:36.712Z,4.63
2018-07-21T12:15:05.192Z,4.27
2018-07-21T12:17:33.675Z,4.00
2018-07-21T12:20:02.085Z,3.83
2018-07-21T12:22:30.461Z,3.93
2018-07-21T12:24:59.049Z,3.90
2018-07-21T12:27:27.436Z,4.67
2018-07-21T12:29:55.839Z,3.80
2018-07-21T12:32:25.023Z,4.30
2018-07-21T12:34:53.366Z,4.83
2018-07-21T12:37:22.010Z,3.57
2018-07-21T12:39:50.340Z,3.30
2018-07-21T12:42:19.665Z,3.77
2018-07-21T12:44:48.005Z,4.20
2018-07-21T12:47:16.415Z,4.17
2018-07-21T12:49:45.106Z,3.90
2018-07-21T12:52:13.473Z,4.27
2018-07-21T12:54:42.014Z,3.90
2018-07-21T12:57:10.381Z,3.80
2018-07-21T12:59:38.767Z,3.63
2018-07-21T13:02:07.165Z,3.67
2018-07-21T13:04:35.625Z,4.30
2018-07-21T13:07:04.020Z,4.73
2018-07-21T13:09:32.589Z,4.67
2018-07-21T13:12:00.961Z,7.17
2018-07-21T13:14:29.322Z,6.43
2018-07-21T13:16:57.676Z,6.10
2018-07-21T13:19:26.042Z,6.80
2018-07-21T13:21:54.510Z,6.20
2018-07-21T13:24:23.012Z,6.00
2018-07-21T13:26:51.409Z,4.43
2018-07-21T13:29:19.759Z,5.27
2018-07-21T13:31:48.127Z,5.97
2018-07-21T13:34:16.505Z,4.33
2018-07-21T13:36:44.990Z,4.30
2018-07-21T13:39:13.364Z,3.83
2018-07-21T13:41:41.767Z,3.97
2018-07-21T13:44:10.196Z,4.40
2018-07-21T13:46:38.576Z,4.17
2018-07-21T13:49:07.026Z,6.63
2018-07-21T13:51:35.393Z,6.67
2018-07-21T13:54:03.887Z,8.00
2018-07-21T13:56:32.391Z,3.77
2018-07-21T13:59:01.071Z,4.90
2018-07-21T14:01:29.512Z,6.80
2018-07-21T14:03:58.329Z,6.40
2018-07-21T14:06:26.716Z,6.23
2018-07-21T14:08:55.076Z,4.10
2018-07-21T14:11:23.512Z,5.87
2018-07-21T14:13:52.242Z,5.03
2018-07-21T14:16:20.667Z,4.73
2018-07-21T14:18:49.249Z,4.33
2018-07-21T14:21:17.782Z,4.53
2018-07-21T14:23:46.263Z,4.23
2018-07-21T14:26:15.010Z,4.60
2018-07-21T14:28:43.366Z,11.70
2018-07-21T14:31:11.748Z,4.43
2018-07-21T14:33:40.222Z,4.77
2018-07-21T14:36:08.715Z,4.80
2018-07-21T14:38:37.182Z,4.10
2018-07-21T14:41:05.652Z,4.60
2018-07-21T14:43:34.055Z,9.90
2018-07-21T14:46:02.474Z,6.37
2018-07-21T14:48:31.027Z,4.53
2018-07-21T14:50:59.397Z,4.23
2018-07-21T14:53:28.140Z,4.17
2018-07-21T14:55:56.488Z,4.10
2018-07-21T14:58:25.074Z,4.70
2018-07-21T15:00:53.542Z,4.20
2018-07-21T15:03:22.213Z,4.60
2018-07-21T15:05:50.597Z,4.47
2018-07-21T15:08:22.271Z,4.50
2018-07-21T15:10:52.965Z,5.10
2018-07-21T15:13:22.374Z,4.17
2018-07-21T15:15:52.350Z,4.30
2018-07-21T15:18:30.307Z,5.00
2018-07-21T15:20:58.631Z,4.87
2018-07-21T15:23:27.222Z,5.83
2018-07-21T15:25:55.772Z,5.03
2018-07-21T15:28:24.172Z,4.93
2018-07-21T15:30:52.572Z,4.57
2018-07-21T15:33:21.010Z,5.27
2018-07-21T15:35:49.430Z,4.80
2018-07-21T15:38:17.993Z,5.37
2018-07-21T15:40:46.407Z,4.73
2018-07-21T15:43:14.854Z,4.87
2018-07-21T15:45:43.217Z,4.50
2018-07-21T15:48:11.581Z,4.10
2018-07-21T15:50:40.257Z,5.50
2018-07-21T15:53:08.986Z,6.97
2018-07-21T15:55:37.347Z,7.20
2018-07-21T15:58:05.787Z,8.63
2018-07-21T16:00:34.153Z,4.63
2018-07-21T16:03:02.827Z,5.17
2018-07-21T16:05:31.235Z,4.80
2018-07-21T16:07:59.656Z,4.30
2018-07-21T16:10:28.265Z,4.67
2018-07-21T16:13:27.238Z,4.40
2018-07-21T16:15:55.629Z,5.17
2018-07-21T16:18:24.568Z,4.20
2018-07-21T16:20:53.506Z,4.73
2018-07-21T16:23:22.341Z,4.30
2018-07-21T16:25:51.513Z,4.60
2018-07-21T16:28:20.267Z,4.10
2018-07-21T16:30:48.739Z,3.83
2018-07-21T16:33:20.207Z,3.90
2018-07-21T16:35:49.015Z,3.90
2018-07-21T16:38:17.651Z,3.80
2018-07-21T16:40:46.417Z,3.53
2018-07-21T16:43:16.006Z,4.07
2018-07-21T16:45:44.441Z,3.80
2018-07-21T16:48:12.918Z,3.50
2018-07-21T16:50:41.357Z,3.23
2018-07-21T16:53:09.861Z,3.67
2018-07-21T16:55:39.356Z,3.40
2018-07-21T16:58:09.375Z,3.80
2018-07-21T17:00:38.231Z,3.90
2018-07-21T17:03:06.870Z,3.27
2018-07-21T17:05:36.761Z,7.50
2018-07-21T17:08:06.376Z,3.70
2018-07-21T17:10:36.066Z,3.43
2018-07-21T17:13:05.245Z,5.17
2018-07-21T17:15:35.048Z,4.40
2018-07-21T17:18:04.361Z,5.03
2018-07-21T17:20:33.452Z,3.97
2018-07-21T17:23:02.406Z,3.93
2018-07-21T17:25:32.158Z,3.57
2018-07-21T17:28:00.745Z,4.07
2018-07-21T17:30:29.365Z,3.53
2018-07-21T17:32:58.109Z,4.20
2018-07-21T17:35:27.308Z,3.97
2018-07-21T17:37:55.747Z,3.93
2018-07-21T17:40:24.164Z,3.57
2018-07-21T17:42:53.065Z,3.53
2018-07-21T17:45:21.543Z,3.67
2018-07-21T17:47:50.073Z,3.40
2018-07-21T17:50:19.551Z,4.10
2018-07-21T17:52:48.417Z,5.27
2018-07-21T17:55:17.125Z,4.87
2018-07-21T17:57:45.580Z,5.17
2018-07-21T18:00:16.296Z,5.70
2018-07-21T18:02:45.046Z,10.60
2018-07-21T18:05:23.424Z,5.83
2018-07-21T18:07:56.015Z,5.27
2018-07-21T18:10:30.125Z,6.03
2018-07-21T18:12:59.888Z,6.77
2018-07-21T18:15:43.116Z,5.53
2018-07-21T18:18:18.561Z,6.27
2018-07-21T18:20:50.423Z,5.87
2018-07-21T18:23:21.402Z,5.63
2018-07-21T18:25:53.984Z,5.73
2018-07-21T18:28:30.121Z,5.40
2018-07-21T18:31:10.214Z,4.97
2018-07-21T18:33:42.239Z,5.25
2018-07-21T18:36:20.862Z,16.07
2018-07-21T18:41:49.250Z,7.40
2018-07-21T18:44:18.986Z,5.60
2018-07-21T18:47:09.184Z,6.47
2018-07-21T18:49:40.220Z,5.83
2018-07-21T18:52:34.676Z,6.87
2018-07-21T18:57:48.705Z,8.60
2018-07-21T19:00:22.814Z,8.23
2018-07-21T19:03:00.705Z,8.27
2018-07-21T19:05:29.574Z,7.10
2018-07-21T19:08:18.651Z,6.50
2018-07-21T19:10:53.995Z,4.70
2018-07-21T19:13:32.519Z,4.03
2018-07-21T19:16:06.384Z,3.53
2018-07-21T19:18:34.937Z,5.70
2018-07-21T19:21:11.432Z,11.00
2018-07-21T19:23:44.558Z,3.40
2018-07-21T19:26:33.011Z,3.57
2018-07-21T19:29:08.254Z,3.00
2018-07-21T19:31:45.807Z,3.50
2018-07-21T19:34:19.657Z,3.70
2018-07-21T19:36:50.417Z,3.80
2018-07-21T19:39:28.540Z,3.87
2018-07-21T19:42:05.428Z,3.97
2018-07-21T19:44:39.508Z,4.70
2018-07-21T19:47:11.144Z,4.73
2018-07-21T19:49:40.139Z,4.70
2018-07-21T19:52:27.213Z,5.03
2018-07-21T19:54:56.575Z,5.40
2018-07-21T19:57:29.244Z,4.97
2018-07-21T20:00:00.006Z,4.97
2018-07-21T20:02:38.415Z,5.00
2018-07-21T20:05:09.705Z,5.30
2018-07-21T20:07:40.433Z,5.20
2018-07-21T20:10:10.133Z,5.37
2018-07-21T20:12:39.375Z,5.40
2018-07-21T20:15:08.459Z,5.57
2018-07-21T20:17:39.083Z,5.63
2018-07-21T20:20:11.993Z,6.87
2018-07-21T20:22:50.729Z,7.20
2018-07-21T20:25:23.773Z,8.03
2018-07-21T20:27:52.791Z,8.83
2018-07-21T20:30:22.179Z,8.97
2018-07-21T20:32:53.139Z,8.90
2018-07-21T20:35:25.975Z,9.73
2018-07-21T20:37:57.875Z,8.83
2018-07-21T20:40:28.936Z,10.20
2018-07-21T20:43:01.075Z,10.50
2018-07-21T20:45:33.562Z,10.18
2018-07-21T20:48:07.658Z,9.30
2018-07-21T20:50:43.698Z,10.30
2018-07-21T20:53:20.170Z,9.83
2018-07-21T20:55:55.187Z,11.00
2018-07-21T20:58:31.914Z,11.13
2018-07-21T21:03:58.984Z,11.37
2018-07-21T21:06:34.001Z,12.53
2018-07-21T21:09:11.928Z,13.30
2018-07-21T21:11:48.877Z,13.37
2018-07-21T21:14:21.059Z,13.33
2018-07-21T21:16:51.174Z,12.90
2018-07-21T21:19:26.055Z,10.97
2018-07-21T21:21:59.471Z,11.30
2018-07-21T21:24:36.644Z,11.62
2018-07-21T21:27:14.017Z,14.03
2018-07-21T21:29:52.287Z,11.67
2018-07-21T21:32:34.739Z,9.93
2018-07-21T21:35:03.428Z,10.83
2018-07-21T21:37:57.413Z,10.90
2018-07-21T21:40:36.819Z,11.00
2018-07-21T21:43:16.807Z,10.70
2018-07-21T21:45:53.301Z,12.60
2018-07-21T21:48:36.320Z,12.20
2018-07-21T21:54:15.350Z,12.37
2018-07-21T21:57:00.461Z,11.20
2018-07-21T21:59:50.541Z,13.13
2018-07-21T22:02:24.670Z,12.77
2018-07-21T22:05:04.641Z,12.03
2018-07-21T22:07:42.981Z,12.87
2018-07-21T22:10:36.280Z,12.47
2018-07-21T22:14:09.835Z,13.03
2018-07-21T22:16:51.502Z,12.90
2018-07-21T22:19:20.183Z,14.10
2018-07-21T22:21:48.827Z,13.90
2018-07-21T22:24:17.691Z,14.30
2018-07-21T22:26:47.557Z,14.03
2018-07-21T22:29:16.155Z,13.30
2018-07-21T22:31:50.678Z,11.90
2018-07-21T22:34:20.283Z,12.70
2018-07-21T22:36:48.747Z,12.53
2018-07-21T22:39:17.919Z,13.80
2018-07-21T22:41:46.301Z,14.53
2018-07-21T22:44:16.329Z,15.33
2018-07-21T22:46:44.927Z,15.47
2018-07-21T22:49:13.389Z,14.87
2018-07-21T22:51:43.081Z,14.90
2018-07-21T22:54:11.447Z,15.07
2018-07-21T22:56:43.296Z,14.63
2018-07-21T22:59:11.757Z,13.80
2018-07-21T23:01:40.759Z,13.37
2018-07-21T23:04:09.319Z,14.03
2018-07-21T23:06:37.694Z,13.53
2018-07-21T23:09:06.736Z,13.57
2018-07-21T23:11:35.092Z,13.63
2018-07-21T23:14:03.446Z,13.40
2018-07-21T23:16:34.222Z,10.67
2018-07-21T23:19:02.650Z,11.70
2018-07-21T23:21:31.290Z,13.50
2018-07-21T23:23:59.738Z,15.30
2018-07-21T23:26:28.189Z,14.80
2018-07-21T23:28:56.617Z,15.57
2018-07-21T23:31:25.048Z,15.57
2018-07-21T23:33:53.446Z,16.37
2018-07-21T23:36:21.819Z,16.23
2018-07-21T23:38:50.153Z,16.43
2018-07-21T23:41:18.498Z,15.47
2018-07-21T23:43:46.902Z,17.23
2018-07-21T23:46:15.264Z,17.57
2018-07-21T23:48:43.936Z,16.53
2018-07-21T23:51:12.242Z,17.40
2018-07-21T23:53:40.599Z,16.77
2018-07-21T23:56:08.974Z,16.20
2018-07-21T23:58:37.364Z,17.97
